Time;durP1;ratioP1;P1;durP2;ratioP2;P2;SDS_P1;SDS_P2;PMS_P1;PMS_P2;Temp;Humidity;BMP_temperature;BMP_pressure;BME280_temperature;BME280_humidity;BME280_pressure;Samples;Min_cycle;Max_cycle;Signal;HPM_P1;HPM_P2
2021/06/22 00:01:57;;;;;;;7.82;3.47;;;;;13.60;101249.00;;;;5107342;28;20124;-82
2021/06/22 00:04:24;;;;;;;9.68;3.70;;;;;13.60;101228.00;;;;5107386;28;20024;-82
2021/06/22 00:06:51;;;;;;;7.28;3.65;;;;;13.60;101250.00;;;;5106748;28;20034;-79
2021/06/22 00:09:17;;;;;;;12.57;3.97;;;;;13.60;101235.00;;;;5113854;27;20081;-79
2021/06/22 00:11:44;;;;;;;13.98;4.45;;;;;13.60;101235.00;;;;5116058;27;20109;-81
2021/06/22 00:14:10;;;;;;;9.43;3.90;;;;;13.60;101225.00;;;;5115597;27;20132;-82
2021/06/22 00:16:37;;;;;;;7.63;2.85;;;;;13.60;101236.00;;;;5127392;27;20057;-80
2021/06/22 00:19:04;;;;;;;10.05;3.47;;;;;13.60;101243.00;;;;5124234;27;20432;-82
2021/06/22 00:21:30;;;;;;;11.82;3.33;;;;;13.50;101228.00;;;;5116033;28;20854;-83
2021/06/22 00:23:57;;;;;;;9.55;3.15;;;;;13.50;101236.00;;;;5102429;28;20083;-80
2021/06/22 00:26:24;;;;;;;11.45;3.45;;;;;13.50;101251.00;;;;5120939;28;20031;-80
2021/06/22 00:28:50;;;;;;;11.13;3.05;;;;;13.50;101253.00;;;;5116453;28;20114;-82
2021/06/22 00:31:18;;;;;;;15.65;5.93;;;;;13.50;101255.00;;;;5115774;28;20032;-80
2021/06/22 00:33:46;;;;;;;6.60;3.33;;;;;13.50;101253.00;;;;5117417;28;20110;-80
2021/06/22 00:36:13;;;;;;;8.68;3.25;;;;;13.60;101240.00;;;;5114970;28;20417;-79
2021/06/22 00:38:39;;;;;;;8.32;2.75;;;;;13.60;101263.00;;;;5126147;28;20856;-81
2021/06/22 00:41:07;;;;;;;8.95;2.90;;;;;13.60;101255.00;;;;5127222;28;20058;-80
2021/06/22 00:43:38;;;;;;;11.73;5.18;;;;;13.70;101268.00;;;;5126979;28;20031;-76
2021/06/22 00:46:05;;;;;;;17.27;3.05;;;;;13.70;101271.00;;;;5126771;27;20114;-79
2021/06/22 00:48:35;;;;;;;14.20;3.97;;;;;13.70;101269.00;;;;5130953;27;20126;-80
2021/06/22 00:51:02;;;;;;;9.18;3.30;;;;;13.70;101267.00;;;;5131140;27;20054;-82
2021/06/22 00:53:29;;;;;;;8.70;2.85;;;;;13.60;101263.00;;;;5130573;27;20062;-79
2021/06/22 00:55:56;;;;;;;6.03;2.35;;;;;13.60;101271.00;;;;5130612;27;20047;-80
2021/06/22 00:58:23;;;;;;;9.77;2.47;;;;;13.70;101268.00;;;;5129184;27;20027;-82
2021/06/22 01:00:51;;;;;;;5.75;2.40;;;;;13.60;101264.00;;;;5129558;27;20027;-82
2021/06/22 01:03:17;;;;;;;4.68;2.30;;;;;13.60;101295.00;;;;5112324;27;20039;-82
2021/06/22 01:05:44;;;;;;;8.57;2.47;;;;;13.60;101286.00;;;;5131116;27;20095;-80
2021/06/22 01:08:13;;;;;;;9.73;2.85;;;;;13.60;101297.00;;;;5129055;27;20030;-80
2021/06/22 01:10:40;;;;;;;9.93;2.65;;;;;13.70;101299.00;;;;5130247;27;20023;-82
2021/06/22 01:13:07;;;;;;;26.50;3.40;;;;;13.70;101307.00;;;;5131569;27;20030;-79
2021/06/22 01:15:34;;;;;;;9.95;2.90;;;;;13.60;101273.00;;;;5129739;27;20034;-81
2021/06/22 01:18:02;;;;;;;10.38;2.58;;;;;13.60;101278.00;;;;5129945;27;20750;-81
2021/06/22 01:20:31;;;;;;;4.97;2.78;;;;;13.60;101284.00;;;;5130520;27;20027;-82
2021/06/22 01:23:01;;;;;;;8.35;3.17;;;;;13.60;101275.00;;;;5128042;27;20088;-80
2021/06/22 01:25:29;;;;;;;9.63;2.83;;;;;13.60;101279.00;;;;5129687;27;20034;-81
2021/06/22 01:27:56;;;;;;;11.93;2.90;;;;;13.60;101260.00;;;;5129155;27;20269;-80
2021/06/22 01:30:27;;;;;;;9.00;2.92;;;;;13.60;101265.00;;;;5132496;27;20027;-82
2021/06/22 01:32:55;;;;;;;10.10;3.13;;;;;13.60;101279.00;;;;5132759;27;20730;-80
2021/06/22 01:35:22;;;;;;;5.60;2.50;;;;;13.60;101257.00;;;;5134662;27;20041;-80
2021/06/22 01:37:51;;;;;;;8.18;2.95;;;;;13.50;101275.00;;;;5129057;27;20027;-81
2021/06/22 01:40:18;;;;;;;8.32;2.80;;;;;13.50;101264.00;;;;5129267;27;20054;-81
2021/06/22 01:42:44;;;;;;;11.52;2.90;;;;;13.60;101268.00;;;;5111427;27;20042;-80
2021/06/22 01:45:12;;;;;;;13.60;2.80;;;;;13.60;101261.00;;;;5128390;27;20089;-81
2021/06/22 01:47:42;;;;;;;7.30;2.80;;;;;13.60;101248.00;;;;5127975;27;20034;-82
2021/06/22 01:50:10;;;;;;;8.00;3.08;;;;;13.60;101249.00;;;;5129284;27;20038;-79
2021/06/22 01:52:37;;;;;;;7.80;2.83;;;;;13.60;101241.00;;;;5128603;27;20490;-82
2021/06/22 01:55:51;;;;;;;12.48;2.92;;;;;13.60;101263.00;;;;5128483;27;20482;-81
2021/06/22 01:57:52;;;;;;;8.30;2.88;;;;;13.50;101253.00;;;;5113635;27;20046;-81
2021/06/22 02:00:19;;;;;;;6.55;2.70;;;;;13.50;101249.00;;;;5128752;27;20501;-80
2021/06/22 02:02:45;;;;;;;9.60;2.50;;;;;13.50;101266.00;;;;5116538;27;20458;-80
2021/06/22 02:05:14;;;;;;;10.38;3.20;;;;;13.50;101250.00;;;;5140373;27;20027;-81
2021/06/22 02:07:41;;;;;;;11.63;3.22;;;;;13.50;101246.00;;;;5138878;27;20027;-80
2021/06/22 02:10:09;;;;;;;12.52;2.97;;;;;13.50;101267.00;;;;5129749;27;20027;-80
2021/06/22 02:12:36;;;;;;;7.28;2.80;;;;;13.50;101253.00;;;;5129267;27;20023;-80
2021/06/22 02:15:04;;;;;;;10.30;3.00;;;;;13.50;101270.00;;;;5127397;27;20023;-80
2021/06/22 02:17:31;;;;;;;11.00;2.58;;;;;13.50;101260.00;;;;5129487;27;20055;-81
2021/06/22 02:19:58;;;;;;;5.93;2.65;;;;;13.50;101249.00;;;;5128590;27;20023;-79
2021/06/22 02:22:25;;;;;;;7.15;2.55;;;;;13.50;101240.00;;;;5129210;27;20416;-80
2021/06/22 02:24:52;;;;;;;9.77;3.13;;;;;13.40;101248.00;;;;5110237;27;20043;-79
2021/06/22 02:27:29;;;;;;;8.45;2.50;;;;;13.40;101246.00;;;;5129116;27;20141;-80
2021/06/22 02:29:56;;;;;;;9.02;2.13;;;;;13.40;101258.00;;;;5129135;27;20019;-80
2021/06/22 02:32:24;;;;;;;9.52;3.05;;;;;13.50;101258.00;;;;5128485;27;20085;-81
2021/06/22 02:34:51;;;;;;;9.60;2.42;;;;;13.50;101274.00;;;;5128848;27;20034;-78
2021/06/22 02:37:18;;;;;;;11.75;2.95;;;;;13.50;101251.00;;;;5128641;27;20537;-81
2021/06/22 02:39:46;;;;;;;8.02;2.03;;;;;13.50;101260.00;;;;5128365;27;20071;-80
2021/06/22 02:42:13;;;;;;;9.43;2.40;;;;;13.50;101277.00;;;;5128734;27;20026;-80
2021/06/22 02:44:39;;;;;;;8.77;2.42;;;;;13.50;101238.00;;;;5128180;27;20038;-80
2021/06/22 02:47:06;;;;;;;9.27;2.80;;;;;13.40;101248.00;;;;5129418;27;20019;-78
2021/06/22 02:49:33;;;;;;;9.13;2.28;;;;;13.40;101227.00;;;;5128747;27;20079;-82
2021/06/22 02:52:01;;;;;;;10.25;1.90;;;;;13.40;101245.00;;;;5128447;27;20027;-81
2021/06/22 02:54:27;;;;;;;14.57;2.60;;;;;13.40;101239.00;;;;5127998;27;20034;-80
2021/06/22 02:56:54;;;;;;;13.55;2.33;;;;;13.40;101246.00;;;;5127303;27;20494;-81
2021/06/22 02:59:20;;;;;;;11.70;2.33;;;;;13.40;101262.00;;;;5128532;27;20442;-81
2021/06/22 03:01:47;;;;;;;6.93;1.92;;;;;13.40;101240.00;;;;5128341;27;20066;-79
2021/06/22 03:04:14;;;;;;;12.93;2.25;;;;;13.40;101253.00;;;;5127636;27;20114;-82
2021/06/22 03:06:40;;;;;;;5.72;2.10;;;;;13.40;101240.00;;;;5127328;27;20023;-80
2021/06/22 03:09:07;;;;;;;11.95;2.30;;;;;13.40;101263.00;;;;5109530;27;20091;-79
2021/06/22 03:11:34;;;;;;;10.32;2.08;;;;;13.40;101268.00;;;;5127814;27;20023;-81
2021/06/22 03:14:00;;;;;;;12.10;2.47;;;;;13.40;101265.00;;;;5127472;27;20042;-79
2021/06/22 03:16:27;;;;;;;17.83;2.70;;;;;13.40;101271.00;;;;5126363;27;20035;-82
2021/06/22 03:18:53;;;;;;;11.93;2.33;;;;;13.40;101262.00;;;;5126986;27;20026;-80
2021/06/22 03:21:20;;;;;;;9.45;2.25;;;;;13.40;101263.00;;;;5127347;27;20118;-80
2021/06/22 03:23:48;;;;;;;14.15;2.75;;;;;13.40;101276.00;;;;5127280;27;20102;-79
2021/06/22 03:26:16;;;;;;;6.38;2.63;;;;;13.40;101256.00;;;;5127204;27;20113;-81
2021/06/22 03:28:43;;;;;;;7.50;2.30;;;;;13.40;101281.00;;;;5127412;27;20027;-82
2021/06/22 03:31:09;;;;;;;11.13;2.50;;;;;13.40;101267.00;;;;5127810;27;20027;-78
2021/06/22 03:33:36;;;;;;;12.00;2.92;;;;;13.50;101241.00;;;;5126849;27;20030;-80
2021/06/22 03:36:03;;;;;;;8.98;2.45;;;;;13.50;101263.00;;;;5126840;27;20479;-79
2021/06/22 03:38:30;;;;;;;8.93;2.30;;;;;13.50;101262.00;;;;5127396;27;20031;-82
2021/06/22 03:40:57;;;;;;;12.27;2.63;;;;;13.50;101252.00;;;;5108862;27;20031;-79
2021/06/22 03:43:24;;;;;;;14.70;2.45;;;;;13.50;101244.00;;;;5126262;27;20473;-80
2021/06/22 03:45:52;;;;;;;9.10;2.80;;;;;13.50;101233.00;;;;5126652;27;20375;-80
2021/06/22 03:48:19;;;;;;;10.65;2.85;;;;;13.50;101237.00;;;;5126419;27;20027;-80
2021/06/22 03:50:46;;;;;;;11.95;2.60;;;;;13.50;101233.00;;;;5126868;27;20030;-81
2021/06/22 03:53:12;;;;;;;9.48;3.03;;;;;13.50;101226.00;;;;5126743;27;20046;-79
2021/06/22 03:55:39;;;;;;;7.25;2.75;;;;;13.50;101245.00;;;;5126871;27;20501;-82
2021/06/22 03:58:06;;;;;;;9.65;2.78;;;;;13.40;101252.00;;;;5126350;27;20027;-82
2021/06/22 04:00:34;;;;;;;14.32;3.50;;;;;13.40;101215.00;;;;5108181;27;20055;-82
2021/06/22 04:03:01;;;;;;;14.55;3.10;;;;;13.40;101232.00;;;;5126481;27;20121;-80
2021/06/22 04:05:29;;;;;;;10.63;2.75;;;;;13.40;101237.00;;;;5126594;27;20034;-80
2021/06/22 04:07:56;;;;;;;7.63;2.85;;;;;13.30;101238.00;;;;5126420;27;20019;-80
2021/06/22 04:10:23;;;;;;;6.07;2.88;;;;;13.30;101238.00;;;;5126187;27;20038;-82
2021/06/22 04:12:50;;;;;;;15.07;3.38;;;;;13.30;101228.00;;;;5126395;27;20033;-79
2021/06/22 04:15:17;;;;;;;9.65;3.17;;;;;13.30;101221.00;;;;5125472;27;20066;-81
2021/06/22 04:17:44;;;;;;;7.90;3.08;;;;;13.20;101248.00;;;;5126449;27;20052;-81
2021/06/22 04:20:12;;;;;;;6.53;3.10;;;;;13.20;101241.00;;;;5125634;27;20379;-80
2021/06/22 04:22:39;;;;;;;10.65;3.42;;;;;13.20;101232.00;;;;5126170;27;20027;-82
2021/06/22 04:25:06;;;;;;;8.85;3.42;;;;;13.10;101230.00;;;;5125983;28;20102;-81
2021/06/22 04:27:33;;;;;;;7.85;3.17;;;;;13.20;101213.00;;;;5107127;28;20031;-80
2021/06/22 04:29:59;;;;;;;8.05;3.55;;;;;13.20;101220.00;;;;5125525;28;20035;-80
2021/06/22 04:32:26;;;;;;;10.73;3.33;;;;;13.20;101219.00;;;;5108019;28;20032;-82
2021/06/22 04:34:53;;;;;;;7.78;3.10;;;;;13.20;101252.00;;;;5126186;28;20435;-79
2021/06/22 04:37:19;;;;;;;9.65;3.83;;;;;13.20;101237.00;;;;5125373;28;20498;-79
2021/06/22 04:39:46;;;;;;;12.00;4.20;;;;;13.20;101217.00;;;;5126280;28;20023;-82
2021/06/22 04:42:12;;;;;;;5.65;3.50;;;;;13.20;101227.00;;;;5125444;28;20035;-83
2021/06/22 04:44:42;;;;;;;9.35;3.70;;;;;13.20;101216.00;;;;5125581;28;20031;-81
2021/06/22 04:47:08;;;;;;;12.95;3.92;;;;;13.20;101229.00;;;;5125954;28;20540;-79
2021/06/22 04:49:35;;;;;;;6.43;3.45;;;;;13.20;101241.00;;;;5125575;28;20074;-81
2021/06/22 04:52:01;;;;;;;7.75;3.90;;;;;13.20;101228.00;;;;5125346;28;20517;-80
2021/06/22 04:54:28;;;;;;;12.63;3.67;;;;;13.20;101252.00;;;;5125434;28;20072;-81
2021/06/22 04:56:55;;;;;;;7.32;4.05;;;;;13.30;101254.00;;;;5125417;28;20039;-81
2021/06/22 04:59:21;;;;;;;16.40;4.35;;;;;13.30;101237.00;;;;5126025;28;20043;-81
2021/06/22 05:01:48;;;;;;;9.25;4.82;;;;;13.30;101233.00;;;;5126380;28;20375;-80
2021/06/22 05:04:14;;;;;;;14.40;4.07;;;;;13.30;101236.00;;;;5126095;28;20062;-81
2021/06/22 05:06:42;;;;;;;5.57;3.28;;;;;13.30;101236.00;;;;5125909;28;20035;-81
2021/06/22 05:09:09;;;;;;;11.63;4.00;;;;;13.30;101225.00;;;;5125065;28;20035;-81
2021/06/22 05:11:35;;;;;;;9.30;3.75;;;;;13.20;101228.00;;;;5125790;28;20023;-80
2021/06/22 05:14:02;;;;;;;10.57;3.72;;;;;13.30;101254.00;;;;5125414;28;20015;-82
2021/06/22 05:16:29;;;;;;;10.25;4.05;;;;;13.30;101239.00;;;;5125239;28;20436;-80
2021/06/22 05:18:55;;;;;;;10.65;3.20;;;;;13.30;101238.00;;;;5125300;28;20023;-80
2021/06/22 05:21:22;;;;;;;7.07;2.67;;;;;13.30;101236.00;;;;5125840;28;20110;-81
2021/06/22 05:23:49;;;;;;;14.77;3.78;;;;;13.40;101241.00;;;;5125174;28;20019;-81
2021/06/22 05:26:15;;;;;;;8.65;3.10;;;;;13.40;101264.00;;;;5125905;28;20091;-81
2021/06/22 05:28:42;;;;;;;10.38;3.45;;;;;13.40;101251.00;;;;5126504;28;20110;-78
2021/06/22 05:31:08;;;;;;;10.93;3.00;;;;;13.40;101254.00;;;;5127074;28;20023;-79
2021/06/22 05:33:35;;;;;;;8.77;3.25;;;;;13.40;101252.00;;;;5129125;27;20084;-80
2021/06/22 05:36:02;;;;;;;8.35;3.30;;;;;13.40;101248.00;;;;5130407;27;20035;-80
2021/06/22 05:38:28;;;;;;;8.77;3.00;;;;;13.40;101260.00;;;;5111856;27;20039;-80
2021/06/22 05:40:55;;;;;;;9.93;2.70;;;;;13.40;101252.00;;;;5129999;27;20027;-80
2021/06/22 05:43:22;;;;;;;6.00;2.50;;;;;13.40;101265.00;;;;5129467;27;20094;-79
2021/06/22 05:45:48;;;;;;;9.85;2.88;;;;;13.40;101250.00;;;;5129184;27;20055;-80
2021/06/22 05:48:15;;;;;;;4.32;2.35;;;;;13.40;101245.00;;;;5129196;27;20069;-78
2021/06/22 05:50:42;;;;;;;7.50;2.40;;;;;13.40;101247.00;;;;5129897;27;20055;-80
2021/06/22 05:53:08;;;;;;;3.63;1.95;;;;;13.40;101260.00;;;;5129592;27;20027;-79
2021/06/22 05:55:35;;;;;;;6.32;2.20;;;;;13.50;101240.00;;;;5128481;27;20065;-80
2021/06/22 05:58:02;;;;;;;6.10;1.92;;;;;13.40;101233.00;;;;5111189;27;20038;-81
2021/06/22 06:00:32;;;;;;;4.78;1.55;;;;;13.50;101257.00;;;;5129704;27;20023;-81
2021/06/22 06:02:59;;;;;;;8.43;2.05;;;;;13.50;101274.00;;;;5129454;27;20038;-80
2021/06/22 06:05:25;;;;;;;5.30;1.92;;;;;13.50;101270.00;;;;5130357;27;20023;-80
2021/06/22 06:07:53;;;;;;;4.50;1.92;;;;;13.50;101264.00;;;;5129103;27;20038;-80
2021/06/22 06:10:20;;;;;;;6.85;2.20;;;;;13.40;101274.00;;;;5130260;27;20027;-79
2021/06/22 06:12:47;;;;;;;8.10;2.15;;;;;13.40;101261.00;;;;5130750;27;20034;-79
2021/06/22 06:15:14;;;;;;;11.48;2.80;;;;;13.30;101264.00;;;;5129473;27;20062;-80
2021/06/22 06:17:41;;;;;;;8.23;3.00;;;;;13.30;101271.00;;;;5130022;27;20035;-80
2021/06/22 06:20:10;;;;;;;11.57;3.15;;;;;13.30;101278.00;;;;5129468;27;20041;-79
2021/06/22 06:22:38;;;;;;;12.10;3.63;;;;;13.20;101276.00;;;;5110949;27;20034;-79
2021/06/22 06:25:07;;;;;;;8.10;3.45;;;;;13.20;101243.00;;;;5129393;27;20110;-79
2021/06/22 06:30:13;;;;;;;11.35;5.18;;;;;13.20;101265.00;;;;5128477;27;20118;-79
2021/06/22 06:32:40;;;;;;;13.52;5.22;;;;;13.20;101262.00;;;;5129048;27;20031;-80
2021/06/22 06:35:08;;;;;;;11.52;4.53;;;;;13.10;101265.00;;;;5128709;27;20481;-80
2021/06/22 06:37:34;;;;;;;11.57;3.22;;;;;13.20;101260.00;;;;5129099;27;20031;-82
2021/06/22 06:40:01;;;;;;;7.75;3.78;;;;;13.20;101259.00;;;;5128499;27;20027;-81
2021/06/22 06:42:27;;;;;;;10.68;3.70;;;;;13.20;101263.00;;;;5128508;27;20023;-82
2021/06/22 06:44:54;;;;;;;7.70;2.92;;;;;13.20;101264.00;;;;5127381;27;20023;-81
2021/06/22 06:47:22;;;;;;;8.05;3.58;;;;;13.20;101268.00;;;;5127365;27;20027;-80
2021/06/22 06:49:48;;;;;;;9.45;3.60;;;;;13.20;101263.00;;;;5128685;27;20038;-81
2021/06/22 06:52:15;;;;;;;13.07;4.07;;;;;13.10;101261.00;;;;5128211;27;20072;-80
2021/06/22 06:54:44;;;;;;;9.80;3.90;;;;;13.10;101277.00;;;;5128422;27;20078;-82
2021/06/22 06:57:11;;;;;;;8.95;4.07;;;;;13.10;101274.00;;;;5129078;27;20385;-81
2021/06/22 06:59:38;;;;;;;5.68;4.07;;;;;13.10;101261.00;;;;5129214;27;20061;-81
2021/06/22 07:02:04;;;;;;;10.55;4.20;;;;;13.10;101272.00;;;;5110186;27;20367;-80
2021/06/22 07:04:32;;;;;;;8.70;4.40;;;;;13.00;101271.00;;;;5133708;27;20027;-80
2021/06/22 07:06:59;;;;;;;11.48;4.82;;;;;13.00;101270.00;;;;5136093;27;20031;-79
2021/06/22 07:09:26;;;;;;;13.98;4.47;;;;;13.00;101250.00;;;;5136378;27;20100;-82
2021/06/22 07:11:56;;;;;;;10.27;4.78;;;;;13.00;101264.00;;;;5129624;27;20084;-81
2021/06/22 07:14:23;;;;;;;19.65;4.88;;;;;13.00;101249.00;;;;5128688;27;20505;-80
2021/06/22 07:16:50;;;;;;;10.68;4.35;;;;;13.00;101255.00;;;;5128465;27;20107;-80
2021/06/22 07:19:18;;;;;;;7.72;3.80;;;;;13.00;101253.00;;;;5127959;27;20776;-81
2021/06/22 07:21:46;;;;;;;8.50;4.45;;;;;13.00;101261.00;;;;5128157;27;20023;-80
2021/06/22 07:24:12;;;;;;;11.98;3.90;;;;;13.00;101257.00;;;;5127211;27;20500;-82
2021/06/22 07:26:39;;;;;;;7.55;3.40;;;;;13.00;101284.00;;;;5127479;27;20427;-79
2021/06/22 07:29:07;;;;;;;8.93;3.33;;;;;13.00;101261.00;;;;5127288;27;20046;-79
2021/06/22 07:31:34;;;;;;;8.82;3.40;;;;;13.10;101267.00;;;;5128200;27;20140;-79
2021/06/22 07:34:01;;;;;;;11.27;3.28;;;;;13.10;101286.00;;;;5127529;27;20039;-80
2021/06/22 07:36:28;;;;;;;5.78;3.00;;;;;13.10;101275.00;;;;5127459;27;20027;-79
2021/06/22 07:38:54;;;;;;;6.50;2.40;;;;;13.10;101273.00;;;;5128642;27;20027;-80
2021/06/22 07:41:22;;;;;;;7.22;2.65;;;;;13.10;101262.00;;;;5127653;27;20015;-83
2021/06/22 07:43:49;;;;;;;7.07;3.25;;;;;13.10;101251.00;;;;5128005;27;20455;-81
2021/06/22 07:46:15;;;;;;;9.05;3.03;;;;;13.10;101261.00;;;;5128514;27;20059;-80
2021/06/22 07:48:42;;;;;;;4.47;2.03;;;;;13.00;101269.00;;;;5127921;27;20508;-80
2021/06/22 07:51:09;;;;;;;6.88;2.05;;;;;13.00;101245.00;;;;5127509;27;20142;-80
2021/06/22 07:53:35;;;;;;;6.72;2.65;;;;;13.00;101260.00;;;;5127036;27;20031;-81
2021/06/22 07:56:03;;;;;;;8.90;2.22;;;;;13.00;101261.00;;;;5127043;27;20062;-80
2021/06/22 07:58:29;;;;;;;8.23;2.28;;;;;13.00;101247.00;;;;5127550;27;20066;-79
2021/06/22 08:00:56;;;;;;;10.63;2.58;;;;;12.90;101251.00;;;;5127621;27;20083;-80
2021/06/22 08:03:24;;;;;;;7.95;2.47;;;;;12.90;101260.00;;;;5109580;27;20405;-78
2021/06/22 08:05:52;;;;;;;7.50;2.72;;;;;12.90;101245.00;;;;5127078;27;20031;-79
2021/06/22 08:08:21;;;;;;;7.38;2.75;;;;;12.90;101273.00;;;;5128762;27;20482;-78
2021/06/22 08:10:51;;;;;;;11.52;3.00;;;;;12.90;101238.00;;;;5127777;27;20031;-79
2021/06/22 08:13:19;;;;;;;8.68;2.63;;;;;12.90;101245.00;;;;5127884;27;20165;-80
2021/06/22 08:15:46;;;;;;;8.77;2.75;;;;;12.90;101243.00;;;;5127203;27;20479;-78
2021/06/22 08:18:13;;;;;;;9.18;3.22;;;;;12.90;101251.00;;;;5127517;27;20082;-77
2021/06/22 08:20:40;;;;;;;7.35;3.15;;;;;12.90;101267.00;;;;5127036;27;20027;-81
2021/06/22 08:23:07;;;;;;;11.35;3.20;;;;;12.80;101269.00;;;;5126506;27;20034;-82
2021/06/22 08:25:38;;;;;;;8.93;2.72;;;;;12.90;101274.00;;;;5126556;27;20019;-79
2021/06/22 08:28:05;;;;;;;9.73;3.00;;;;;12.90;101273.00;;;;5127728;28;20172;-81
2021/06/22 08:30:32;;;;;;;7.88;3.20;;;;;12.90;101262.00;;;;5127880;28;20019;-82
2021/06/22 08:32:59;;;;;;;10.57;3.20;;;;;12.90;101265.00;;;;5127621;28;20119;-80
2021/06/22 08:35:25;;;;;;;8.90;2.60;;;;;12.90;101282.00;;;;5127533;28;20732;-79
2021/06/22 08:37:53;;;;;;;11.02;2.80;;;;;12.90;101261.00;;;;5127091;28;20481;-79
2021/06/22 08:40:20;;;;;;;13.80;3.40;;;;;12.90;101274.00;;;;5109919;28;20023;-79
2021/06/22 08:42:47;;;;;;;7.60;2.85;;;;;12.90;101292.00;;;;5127149;28;20405;-78
2021/06/22 08:45:17;;;;;;;10.45;2.67;;;;;12.90;101265.00;;;;5127530;28;20031;-81
2021/06/22 08:47:44;;;;;;;10.65;3.00;;;;;12.90;101302.00;;;;5127705;28;20019;-81
2021/06/22 08:50:12;;;;;;;7.22;3.13;;;;;12.90;101293.00;;;;5127130;28;20027;-80
2021/06/22 08:52:39;;;;;;;10.30;2.80;;;;;12.90;101293.00;;;;5127216;28;20027;-80
2021/06/22 08:55:10;;;;;;;8.95;2.60;;;;;12.90;101300.00;;;;5127806;28;20504;-82
2021/06/22 08:57:36;;;;;;;13.77;3.10;;;;;12.90;101290.00;;;;5126986;28;20054;-80
2021/06/22 09:00:05;;;;;;;10.30;2.70;;;;;12.90;101300.00;;;;5126003;28;20027;-80
2021/06/22 09:02:34;;;;;;;9.45;2.75;;;;;12.90;101302.00;;;;5126360;28;20031;-80
2021/06/22 09:05:00;;;;;;;13.40;3.10;;;;;12.90;101299.00;;;;5107758;28;20058;-81
2021/06/22 09:07:48;;;;;;;8.50;2.20;;;;;13.00;101313.00;;;;5128053;27;20034;-79
2021/06/22 09:10:22;;;;;;;6.00;2.40;;;;;13.00;101326.00;;;;5131428;27;20105;-81
2021/06/22 09:12:49;;;;;;;13.43;2.53;;;;;13.00;101304.00;;;;5130433;27;20084;-81
2021/06/22 09:15:23;;;;;;;10.52;2.50;;;;;12.90;101306.00;;;;5130243;27;20028;-80
2021/06/22 09:17:50;;;;;;;17.98;2.28;;;;;12.90;101313.00;;;;5131139;27;20056;-79
2021/06/22 09:20:39;;;;;;;9.95;2.00;;;;;13.00;101320.00;;;;5130112;27;20083;-79
2021/06/22 09:23:14;;;;;;;9.05;2.05;;;;;13.00;101311.00;;;;5130519;27;20031;-82
2021/06/22 09:25:42;;;;;;;6.93;2.10;;;;;13.00;101327.00;;;;5130719;27;20489;-81
2021/06/22 09:28:09;;;;;;;5.05;1.90;;;;;13.00;101355.00;;;;5130709;27;20880;-83
2021/06/22 09:30:35;;;;;;;9.18;2.00;;;;;13.00;101338.00;;;;5130273;27;20031;-82
2021/06/22 09:33:39;;;;;;;12.50;1.95;;;;;13.00;101344.00;;;;5130166;27;20031;-80
2021/06/22 09:36:26;;;;;;;7.43;1.60;;;;;13.10;101320.00;;;;5086884;27;20042;-79
2021/06/22 09:38:55;;;;;;;5.07;1.65;;;;;13.10;101335.00;;;;5130018;27;20561;-80
2021/06/22 09:41:23;;;;;;;4.07;1.48;;;;;13.10;101334.00;;;;5130571;27;20083;-80
2021/06/22 09:44:05;;;;;;;3.65;1.80;;;;;13.10;101357.00;;;;5129475;27;20121;-82
2021/06/22 09:46:38;;;;;;;5.47;1.38;;;;;13.10;101356.00;;;;5129639;27;20564;-80
2021/06/22 09:49:19;;;;;;;3.53;1.20;;;;;13.10;101356.00;;;;5129638;27;20046;-80
2021/06/22 09:52:04;;;;;;;10.68;1.70;;;;;13.10;101357.00;;;;5127922;27;20035;-83
2021/06/22 09:54:35;;;;;;;6.50;1.58;;;;;13.10;101373.00;;;;5129161;27;20047;-81
2021/06/22 09:57:19;;;;;;;8.00;2.58;;;;;13.10;101355.00;;;;5129121;27;20043;-81
2021/06/22 10:00:08;;;;;;;5.65;1.42;;;;;13.10;101348.00;;;;5129353;27;20060;-78
2021/06/22 10:02:50;;;;;;;16.25;1.90;;;;;13.10;101373.00;;;;5126977;27;20115;-83
2021/06/22 10:05:17;;;;;;;10.73;1.70;;;;;13.20;101366.00;;;;5128653;27;20122;-83
2021/06/22 10:07:44;;;;;;;7.13;1.50;;;;;13.20;101362.00;;;;5110012;27;20398;-79
2021/06/22 10:10:11;;;;;;;3.35;1.00;;;;;13.20;101375.00;;;;5129246;27;20042;-81
2021/06/22 10:12:44;;;;;;;4.38;1.25;;;;;13.20;101378.00;;;;5129100;27;20390;-81
2021/06/22 10:15:13;;;;;;;5.85;1.00;;;;;13.20;101374.00;;;;5129208;27;20445;-82
2021/06/22 10:17:41;;;;;;;3.83;1.30;;;;;13.20;101391.00;;;;5129099;27;20042;-80
2021/06/22 10:20:10;;;;;;;7.90;2.22;;;;;13.20;101366.00;;;;5127502;27;20395;-83
2021/06/22 10:22:38;;;;;;;3.53;1.40;;;;;13.20;101398.00;;;;5129684;27;20363;-82
2021/06/22 10:25:08;;;;;;;3.78;1.50;;;;;13.10;101382.00;;;;5129234;27;20035;-80
2021/06/22 10:27:34;;;;;;;4.10;1.63;;;;;13.10;101385.00;;;;5130197;27;20023;-80
2021/06/22 10:30:05;;;;;;;4.47;1.50;;;;;13.10;101375.00;;;;5129424;27;20534;-80
2021/06/22 10:32:32;;;;;;;5.85;1.83;;;;;13.10;101372.00;;;;5128684;27;20038;-79
2021/06/22 10:35:11;;;;;;;6.82;1.40;;;;;13.10;101389.00;;;;5129771;27;20100;-81
2021/06/22 10:37:40;;;;;;;3.78;1.40;;;;;13.10;101409.00;;;;5127800;27;20497;-81
2021/06/22 10:40:29;;;;;;;8.15;1.48;;;;;13.10;101404.00;;;;5128883;27;20058;-81
2021/06/22 10:43:03;;;;;;;8.02;1.48;;;;;13.20;101414.00;;;;5129083;27;20572;-82
2021/06/22 10:45:30;;;;;;;3.45;1.58;;;;;13.20;101401.00;;;;5129513;27;20039;-82
2021/06/22 10:47:59;;;;;;;6.72;1.95;;;;;13.20;101406.00;;;;5128918;27;20023;-79
2021/06/22 10:50:26;;;;;;;4.03;1.60;;;;;13.20;101419.00;;;;5129218;27;20031;-83
2021/06/22 10:53:00;;;;;;;5.03;2.05;;;;;13.20;101398.00;;;;5109601;27;20019;-81
2021/06/22 10:55:34;;;;;;;3.55;1.83;;;;;13.20;101423.00;;;;5127700;27;20031;-82
2021/06/22 10:58:00;;;;;;;6.68;2.15;;;;;13.30;101438.00;;;;5128679;27;20476;-80
2021/06/22 11:00:29;;;;;;;8.55;3.58;;;;;13.30;101422.00;;;;5128199;27;20379;-82
2021/06/22 11:03:05;;;;;;;7.60;2.33;;;;;13.30;101439.00;;;;5129003;27;20034;-80
2021/06/22 11:05:34;;;;;;;5.68;2.33;;;;;13.30;101438.00;;;;5128187;27;20023;-84
2021/06/22 11:08:16;;;;;;;7.40;2.90;;;;;13.40;101468.00;;;;5128303;27;20521;-83
2021/06/22 11:11:09;;;;;;;4.97;2.42;;;;;13.40;101463.00;;;;5127715;27;20031;-83
2021/06/22 11:13:40;;;;;;;7.50;2.70;;;;;13.50;101459.00;;;;5128306;27;20019;-83
2021/06/22 11:16:31;;;;;;;5.50;2.47;;;;;13.50;101461.00;;;;5127728;27;20098;-80
2021/06/22 11:19:04;;;;;;;6.05;2.67;;;;;13.50;101441.00;;;;5127754;27;20023;-80
2021/06/22 11:21:33;;;;;;;5.72;2.22;;;;;13.60;101462.00;;;;5127077;27;20170;-82
2021/06/22 11:24:09;;;;;;;8.98;2.28;;;;;13.70;101438.00;;;;5127198;27;20038;-80
2021/06/22 11:26:47;;;;;;;10.90;2.33;;;;;13.80;101461.00;;;;5126999;27;20031;-80
2021/06/22 11:29:21;;;;;;;2.47;1.10;;;;;13.90;101445.00;;;;5127839;27;20034;-84
2021/06/22 11:31:51;;;;;;;2.40;1.05;;;;;13.90;101449.00;;;;5127749;27;20027;-82
2021/06/22 11:34:29;;;;;;;3.33;1.27;;;;;13.90;101443.00;;;;5128067;27;20027;-82
2021/06/22 11:36:57;;;;;;;4.72;1.48;;;;;14.00;101456.00;;;;5128444;27;20035;-81
2021/06/22 11:39:59;;;;;;;4.40;1.45;;;;;14.00;101464.00;;;;5127923;27;20034;-81
2021/06/22 11:42:26;;;;;;;7.13;2.00;;;;;14.00;101455.00;;;;5122501;27;20051;-81
2021/06/22 11:45:14;;;;;;;6.72;1.40;;;;;14.10;101461.00;;;;5127110;27;20027;-83
2021/06/22 11:47:40;;;;;;;5.75;1.60;;;;;14.10;101464.00;;;;5127366;27;20054;-77
2021/06/22 11:50:10;;;;;;;2.30;1.40;;;;;14.10;101467.00;;;;5128199;27;20035;-82
2021/06/22 11:52:41;;;;;;;6.13;1.52;;;;;14.10;101464.00;;;;5128024;27;20027;-84
2021/06/22 11:55:18;;;;;;;;;;;;;14.20;101472.00;;;;5128617;27;20054;-78
2021/06/22 11:57:59;;;;;;;4.90;1.52;;;;;14.20;101435.00;;;;5127987;27;19915;-79
2021/06/22 12:00:29;;;;;;;4.00;1.70;;;;;14.20;101453.00;;;;5128403;27;20072;-83
2021/06/22 12:03:01;;;;;;;7.43;1.85;;;;;14.30;101450.00;;;;5127822;27;20027;-81
2021/06/22 12:05:32;;;;;;;4.65;1.73;;;;;14.30;101473.00;;;;5127895;27;20023;-79
2021/06/22 12:08:01;;;;;;;4.40;1.50;;;;;14.30;101481.00;;;;5132636;27;20023;-79
2021/06/22 12:10:51;;;;;;;3.88;1.70;;;;;14.40;101462.00;;;;5137287;27;20031;-82
2021/06/22 12:13:35;;;;;;;6.35;1.75;;;;;14.50;101457.00;;;;5132096;27;20485;-84
2021/06/22 12:16:25;;;;;;;6.32;1.88;;;;;14.60;101474.00;;;;5127358;27;20490;-81
2021/06/22 12:18:57;;;;;;;3.80;1.65;;;;;14.50;101478.00;;;;5127549;27;20058;-79